sensor_id;sensor_type;location;lat;lon;timestamp;P1;durP1;ratioP1;P2;durP2;ratioP2
37973;SDS011;23796;51.458;7.000;2023-06-22T00:00:51;6.10;;;3.53;;
37973;SDS011;23796;51.458;7.000;2023-06-22T00:03:19;6.45;;;3.53;;
37973;SDS011;23796;51.458;7.000;2023-06-22T00:05:47;6.40;;;3.35;;
37973;SDS011;23796;51.458;7.000;2023-06-22T00:08:15;6.35;;;4.15;;
37973;SDS011;23796;51.458;7.000;2023-06-22T00:10:42;6.07;;;4.03;;
37973;SDS011;23796;51.458;7.000;2023-06-22T00:13:13;7.53;;;4.13;;
37973;SDS011;23796;51.458;7.000;2023-06-22T00:18:09;5.65;;;3.67;;
37973;SDS011;23796;51.458;7.000;2023-06-22T00:20:36;5.97;;;3.50;;
37973;SDS011;23796;51.458;7.000;2023-06-22T00:23:02;6.80;;;4.30;;
37973;SDS011;23796;51.458;7.000;2023-06-22T00:25:35;7.68;;;4.25;;
37973;SDS011;23796;51.458;7.000;2023-06-22T00:28:07;5.13;;;3.67;;
37973;SDS011;23796;51.458;7.000;2023-06-22T00:30:33;5.50;;;3.67;;
37973;SDS011;23796;51.458;7.000;2023-06-22T00:33:02;6.88;;;3.78;;
37973;SDS011;23796;51.458;7.000;2023-06-22T00:35:32;5.68;;;3.85;;
37973;SDS011;23796;51.458;7.000;2023-06-22T00:37:59;7.28;;;4.40;;
37973;SDS011;23796;51.458;7.000;2023-06-22T00:40:31;7.20;;;5.20;;
37973;SDS011;23796;51.458;7.000;2023-06-22T00:42:57;6.32;;;4.60;;
37973;SDS011;23796;51.458;7.000;2023-06-22T00:45:28;6.88;;;4.00;;
37973;SDS011;23796;51.458;7.000;2023-06-22T00:47:54;7.53;;;3.90;;
37973;SDS011;23796;51.458;7.000;2023-06-22T00:50:25;5.72;;;4.25;;
37973;SDS011;23796;51.458;7.000;2023-06-22T00:52:56;6.85;;;4.63;;
37973;SDS011;23796;51.458;7.000;2023-06-22T00:55:23;6.05;;;4.28;;
37973;SDS011;23796;51.458;7.000;2023-06-22T00:57:51;5.63;;;4.25;;
37973;SDS011;23796;51.458;7.000;2023-06-22T01:00:20;6.35;;;4.03;;
37973;SDS011;23796;51.458;7.000;2023-06-22T01:02:50;6.15;;;3.85;;
37973;SDS011;23796;51.458;7.000;2023-06-22T01:05:18;5.63;;;4.00;;
37973;SDS011;23796;51.458;7.000;2023-06-22T01:16:30;5.53;;;3.90;;
37973;SDS011;23796;51.458;7.000;2023-06-22T01:18:57;8.07;;;4.68;;
37973;SDS011;23796;51.458;7.000;2023-06-22T01:21:28;4.82;;;3.80;;
37973;SDS011;23796;51.458;7.000;2023-06-22T01:24:01;6.15;;;4.13;;
37973;SDS011;23796;51.458;7.000;2023-06-22T01:29:49;5.68;;;4.10;;
37973;SDS011;23796;51.458;7.000;2023-06-22T01:32:17;5.60;;;3.65;;
37973;SDS011;23796;51.458;7.000;2023-06-22T01:34:46;6.32;;;4.45;;
37973;SDS011;23796;51.458;7.000;2023-06-22T01:37:15;6.97;;;4.05;;
37973;SDS011;23796;51.458;7.000;2023-06-22T01:39:44;5.97;;;3.78;;
37973;SDS011;23796;51.458;7.000;2023-06-22T01:42:10;6.60;;;4.63;;
37973;SDS011;23796;51.458;7.000;2023-06-22T01:44:36;5.95;;;4.88;;
37973;SDS011;23796;51.458;7.000;2023-06-22T01:47:05;6.90;;;5.00;;
37973;SDS011;23796;51.458;7.000;2023-06-22T01:49:35;7.68;;;4.70;;
37973;SDS011;23796;51.458;7.000;2023-06-22T01:52:03;6.18;;;4.47;;
37973;SDS011;23796;51.458;7.000;2023-06-22T01:54:29;7.00;;;4.82;;
37973;SDS011;23796;51.458;7.000;2023-06-22T01:56:59;7.63;;;4.78;;
37973;SDS011;23796;51.458;7.000;2023-06-22T01:59:26;7.30;;;6.30;;
37973;SDS011;23796;51.458;7.000;2023-06-22T02:02:15;8.90;;;6.20;;
37973;SDS011;23796;51.458;7.000;2023-06-22T02:04:46;9.00;;;6.40;;
37973;SDS011;23796;51.458;7.000;2023-06-22T02:09:45;8.40;;;7.32;;
37973;SDS011;23796;51.458;7.000;2023-06-22T02:12:14;8.07;;;7.20;;
37973;SDS011;23796;51.458;7.000;2023-06-22T02:14:43;9.80;;;7.97;;
37973;SDS011;23796;51.458;7.000;2023-06-22T02:17:11;8.93;;;7.03;;
37973;SDS011;23796;51.458;7.000;2023-06-22T02:19:42;7.85;;;7.15;;
37973;SDS011;23796;51.458;7.000;2023-06-22T02:22:11;7.93;;;7.13;;
37973;SDS011;23796;51.458;7.000;2023-06-22T02:24:37;9.75;;;7.57;;
37973;SDS011;23796;51.458;7.000;2023-06-22T02:27:03;8.68;;;7.53;;
37973;SDS011;23796;51.458;7.000;2023-06-22T02:29:30;8.52;;;6.85;;
37973;SDS011;23796;51.458;7.000;2023-06-22T02:31:56;8.95;;;8.05;;
37973;SDS011;23796;51.458;7.000;2023-06-22T02:34:22;11.93;;;8.10;;
37973;SDS011;23796;51.458;7.000;2023-06-22T02:36:48;10.63;;;7.25;;
37973;SDS011;23796;51.458;7.000;2023-06-22T02:39:23;9.38;;;7.57;;
37973;SDS011;23796;51.458;7.000;2023-06-22T02:44:17;8.43;;;7.15;;
37973;SDS011;23796;51.458;7.000;2023-06-22T02:46:43;8.63;;;7.80;;
37973;SDS011;23796;51.458;7.000;2023-06-22T02:49:10;10.20;;;7.30;;
37973;SDS011;23796;51.458;7.000;2023-06-22T02:51:37;8.48;;;6.72;;
37973;SDS011;23796;51.458;7.000;2023-06-22T02:54:04;9.50;;;6.78;;
37973;SDS011;23796;51.458;7.000;2023-06-22T02:56:33;9.50;;;7.57;;
37973;SDS011;23796;51.458;7.000;2023-06-22T02:58:59;7.78;;;6.97;;
37973;SDS011;23796;51.458;7.000;2023-06-22T03:01:27;8.50;;;7.63;;
37973;SDS011;23796;51.458;7.000;2023-06-22T03:03:57;8.18;;;6.57;;
37973;SDS011;23796;51.458;7.000;2023-06-22T03:06:23;9.15;;;7.15;;
37973;SDS011;23796;51.458;7.000;2023-06-22T03:08:58;8.07;;;7.25;;
37973;SDS011;23796;51.458;7.000;2023-06-22T03:11:25;10.80;;;7.82;;
37973;SDS011;23796;51.458;7.000;2023-06-22T03:13:53;9.77;;;7.15;;
37973;SDS011;23796;51.458;7.000;2023-06-22T03:16:19;8.57;;;7.63;;
37973;SDS011;23796;51.458;7.000;2023-06-22T03:18:44;10.15;;;7.65;;
37973;SDS011;23796;51.458;7.000;2023-06-22T03:21:12;9.82;;;7.32;;
37973;SDS011;23796;51.458;7.000;2023-06-22T03:23:40;9.48;;;7.35;;
37973;SDS011;23796;51.458;7.000;2023-06-22T03:26:06;8.48;;;6.75;;
37973;SDS011;23796;51.458;7.000;2023-06-22T03:28:39;9.57;;;7.35;;
37973;SDS011;23796;51.458;7.000;2023-06-22T03:31:06;8.88;;;7.63;;
37973;SDS011;23796;51.458;7.000;2023-06-22T03:33:34;8.70;;;7.90;;
37973;SDS011;23796;51.458;7.000;2023-06-22T03:36:02;8.45;;;7.45;;
37973;SDS011;23796;51.458;7.000;2023-06-22T03:38:28;8.50;;;7.53;;
37973;SDS011;23796;51.458;7.000;2023-06-22T03:40:54;9.10;;;7.60;;
37973;SDS011;23796;51.458;7.000;2023-06-22T03:43:25;9.10;;;7.80;;
37973;SDS011;23796;51.458;7.000;2023-06-22T03:45:50;8.10;;;7.30;;
37973;SDS011;23796;51.458;7.000;2023-06-22T03:48:18;8.90;;;8.02;;
37973;SDS011;23796;51.458;7.000;2023-06-22T03:50:44;12.38;;;11.25;;
37973;SDS011;23796;51.458;7.000;2023-06-22T03:53:10;8.88;;;7.97;;
37973;SDS011;23796;51.458;7.000;2023-06-22T03:55:40;9.63;;;7.95;;
37973;SDS011;23796;51.458;7.000;2023-06-22T03:58:13;9.55;;;8.57;;
37973;SDS011;23796;51.458;7.000;2023-06-22T04:00:41;9.60;;;8.43;;
37973;SDS011;23796;51.458;7.000;2023-06-22T04:03:09;10.25;;;9.23;;
37973;SDS011;23796;51.458;7.000;2023-06-22T04:05:36;9.77;;;8.25;;
37973;SDS011;23796;51.458;7.000;2023-06-22T04:08:04;10.00;;;9.02;;
37973;SDS011;23796;51.458;7.000;2023-06-22T04:10:32;11.15;;;8.68;;
37973;SDS011;23796;51.458;7.000;2023-06-22T04:13:01;10.05;;;8.88;;
37973;SDS011;23796;51.458;7.000;2023-06-22T04:15:26;10.70;;;8.82;;
37973;SDS011;23796;51.458;7.000;2023-06-22T04:17:54;9.27;;;8.38;;
37973;SDS011;23796;51.458;7.000;2023-06-22T04:20:22;10.45;;;8.43;;
37973;SDS011;23796;51.458;7.000;2023-06-22T04:22:51;9.80;;;8.80;;
37973;SDS011;23796;51.458;7.000;2023-06-22T04:25:17;9.57;;;8.68;;
37973;SDS011;23796;51.458;7.000;2023-06-22T04:27:46;9.40;;;8.43;;
37973;SDS011;23796;51.458;7.000;2023-06-22T04:30:14;10.57;;;9.50;;
37973;SDS011;23796;51.458;7.000;2023-06-22T04:32:41;10.10;;;8.70;;
37973;SDS011;23796;51.458;7.000;2023-06-22T04:35:07;9.90;;;8.88;;
37973;SDS011;23796;51.458;7.000;2023-06-22T04:37:35;10.50;;;9.00;;
37973;SDS011;23796;51.458;7.000;2023-06-22T04:40:00;11.15;;;9.27;;
37973;SDS011;23796;51.458;7.000;2023-06-22T04:42:29;10.02;;;9.02;;
37973;SDS011;23796;51.458;7.000;2023-06-22T04:44:58;9.45;;;8.48;;
37973;SDS011;23796;51.458;7.000;2023-06-22T04:47:24;11.07;;;8.77;;
37973;SDS011;23796;51.458;7.000;2023-06-22T04:49:52;13.50;;;9.43;;
37973;SDS011;23796;51.458;7.000;2023-06-22T04:52:20;10.63;;;9.55;;
37973;SDS011;23796;51.458;7.000;2023-06-22T04:54:46;10.63;;;9.63;;
37973;SDS011;23796;51.458;7.000;2023-06-22T04:57:22;11.43;;;9.75;;
37973;SDS011;23796;51.458;7.000;2023-06-22T04:59:57;11.63;;;10.48;;
37973;SDS011;23796;51.458;7.000;2023-06-22T05:02:52;10.35;;;9.35;;
37973;SDS011;23796;51.458;7.000;2023-06-22T05:05:17;11.93;;;10.48;;
37973;SDS011;23796;51.458;7.000;2023-06-22T05:07:44;10.65;;;9.65;;
37973;SDS011;23796;51.458;7.000;2023-06-22T05:10:13;10.73;;;9.70;;
37973;SDS011;23796;51.458;7.000;2023-06-22T05:12:41;11.40;;;9.38;;
37973;SDS011;23796;51.458;7.000;2023-06-22T05:15:07;10.18;;;9.25;;
37973;SDS011;23796;51.458;7.000;2023-06-22T05:17:38;9.90;;;8.90;;
37973;SDS011;23796;51.458;7.000;2023-06-22T05:20:12;12.80;;;9.85;;
37973;SDS011;23796;51.458;7.000;2023-06-22T05:22:43;9.95;;;8.95;;
37973;SDS011;23796;51.458;7.000;2023-06-22T05:25:11;11.57;;;10.40;;
37973;SDS011;23796;51.458;7.000;2023-06-22T05:27:37;11.25;;;9.68;;
37973;SDS011;23796;51.458;7.000;2023-06-22T05:30:08;11.35;;;10.05;;
37973;SDS011;23796;51.458;7.000;2023-06-22T05:32:36;10.77;;;9.48;;
37973;SDS011;23796;51.458;7.000;2023-06-22T05:35:02;11.75;;;9.10;;
37973;SDS011;23796;51.458;7.000;2023-06-22T05:37:30;10.52;;;9.27;;
37973;SDS011;23796;51.458;7.000;2023-06-22T05:39:58;10.32;;;9.32;;
37973;SDS011;23796;51.458;7.000;2023-06-22T05:42:26;10.93;;;9.80;;
37973;SDS011;23796;51.458;7.000;2023-06-22T05:44:52;11.27;;;9.50;;
37973;SDS011;23796;51.458;7.000;2023-06-22T05:47:21;11.27;;;9.95;;
37973;SDS011;23796;51.458;7.000;2023-06-22T05:49:47;11.45;;;9.68;;
37973;SDS011;23796;51.458;7.000;2023-06-22T05:52:13;12.45;;;9.50;;
37973;SDS011;23796;51.458;7.000;2023-06-22T05:54:41;12.90;;;11.60;;
37973;SDS011;23796;51.458;7.000;2023-06-22T05:57:10;11.52;;;9.68;;
37973;SDS011;23796;51.458;7.000;2023-06-22T05:59:38;10.52;;;9.50;;
37973;SDS011;23796;51.458;7.000;2023-06-22T06:02:04;12.77;;;10.77;;
37973;SDS011;23796;51.458;7.000;2023-06-22T06:04:30;15.73;;;11.63;;
37973;SDS011;23796;51.458;7.000;2023-06-22T06:06:58;12.40;;;11.10;;
37973;SDS011;23796;51.458;7.000;2023-06-22T06:09:23;14.48;;;11.07;;
37973;SDS011;23796;51.458;7.000;2023-06-22T06:11:53;12.77;;;10.32;;
37973;SDS011;23796;51.458;7.000;2023-06-22T06:14:19;13.88;;;12.40;;
37973;SDS011;23796;51.458;7.000;2023-06-22T06:16:47;14.07;;;12.63;;
37973;SDS011;23796;51.458;7.000;2023-06-22T06:19:17;15.00;;;10.82;;
37973;SDS011;23796;51.458;7.000;2023-06-22T06:21:45;12.27;;;10.98;;
37973;SDS011;23796;51.458;7.000;2023-06-22T06:24:16;11.45;;;10.27;;
37973;SDS011;23796;51.458;7.000;2023-06-22T06:26:42;12.20;;;10.43;;
37973;SDS011;23796;51.458;7.000;2023-06-22T06:29:08;12.60;;;11.30;;
37973;SDS011;23796;51.458;7.000;2023-06-22T06:31:35;12.45;;;11.23;;
37973;SDS011;23796;51.458;7.000;2023-06-22T06:34:01;12.40;;;11.13;;
37973;SDS011;23796;51.458;7.000;2023-06-22T06:36:29;14.60;;;11.27;;
37973;SDS011;23796;51.458;7.000;2023-06-22T06:38:55;14.82;;;11.50;;
37973;SDS011;23796;51.458;7.000;2023-06-22T06:41:22;12.15;;;10.95;;
37973;SDS011;23796;51.458;7.000;2023-06-22T06:43:50;11.60;;;10.43;;
37973;SDS011;23796;51.458;7.000;2023-06-22T06:46:17;12.25;;;11.05;;
37973;SDS011;23796;51.458;7.000;2023-06-22T06:48:44;12.13;;;10.60;;
37973;SDS011;23796;51.458;7.000;2023-06-22T06:51:12;18.67;;;12.02;;
37973;SDS011;23796;51.458;7.000;2023-06-22T06:53:37;12.52;;;11.32;;
37973;SDS011;23796;51.458;7.000;2023-06-22T06:56:03;13.73;;;12.30;;
37973;SDS011;23796;51.458;7.000;2023-06-22T06:58:30;13.63;;;12.27;;
37973;SDS011;23796;51.458;7.000;2023-06-22T07:00:56;14.10;;;12.50;;
37973;SDS011;23796;51.458;7.000;2023-06-22T07:03:21;12.13;;;11.10;;
37973;SDS011;23796;51.458;7.000;2023-06-22T07:05:47;16.05;;;11.88;;
37973;SDS011;23796;51.458;7.000;2023-06-22T07:08:13;13.02;;;11.82;;
37973;SDS011;23796;51.458;7.000;2023-06-22T07:10:41;13.90;;;12.60;;
37973;SDS011;23796;51.458;7.000;2023-06-22T07:13:06;13.45;;;12.23;;
37973;SDS011;23796;51.458;7.000;2023-06-22T07:15:32;15.90;;;12.50;;
37973;SDS011;23796;51.458;7.000;2023-06-22T07:18:00;13.77;;;12.18;;
37973;SDS011;23796;51.458;7.000;2023-06-22T07:20:28;12.57;;;11.32;;
37973;SDS011;23796;51.458;7.000;2023-06-22T07:22:53;14.32;;;11.93;;
37973;SDS011;23796;51.458;7.000;2023-06-22T07:25:19;13.90;;;11.20;;
37973;SDS011;23796;51.458;7.000;2023-06-22T07:28:08;13.05;;;11.75;;
37973;SDS011;23796;51.458;7.000;2023-06-22T07:30:33;12.20;;;11.10;;
37973;SDS011;23796;51.458;7.000;2023-06-22T07:32:59;12.50;;;11.20;;
37973;SDS011;23796;51.458;7.000;2023-06-22T07:35:29;12.73;;;11.48;;
37973;SDS011;23796;51.458;7.000;2023-06-22T07:37:58;13.55;;;12.20;;
37973;SDS011;23796;51.458;7.000;2023-06-22T07:40:26;12.90;;;11.50;;
37973;SDS011;23796;51.458;7.000;2023-06-22T07:42:54;13.82;;;12.40;;
37973;SDS011;23796;51.458;7.000;2023-06-22T07:45:19;14.48;;;11.63;;
37973;SDS011;23796;51.458;7.000;2023-06-22T07:47:48;13.48;;;11.82;;
37973;SDS011;23796;51.458;7.000;2023-06-22T07:50:13;12.07;;;10.88;;
37973;SDS011;23796;51.458;7.000;2023-06-22T07:52:39;13.35;;;11.90;;
37973;SDS011;23796;51.458;7.000;2023-06-22T07:55:05;12.93;;;10.50;;
37973;SDS011;23796;51.458;7.000;2023-06-22T07:57:33;12.20;;;10.95;;
37973;SDS011;23796;51.458;7.000;2023-06-22T08:00:03;12.25;;;11.07;;
37973;SDS011;23796;51.458;7.000;2023-06-22T08:02:37;12.80;;;10.35;;
37973;SDS011;23796;51.458;7.000;2023-06-22T08:05:06;13.07;;;11.27;;
37973;SDS011;23796;51.458;7.000;2023-06-22T08:07:35;12.40;;;10.77;;
37973;SDS011;23796;51.458;7.000;2023-06-22T08:10:03;12.48;;;11.18;;
37973;SDS011;23796;51.458;7.000;2023-06-22T08:12:34;14.52;;;11.70;;
37973;SDS011;23796;51.458;7.000;2023-06-22T08:14:59;12.88;;;11.25;;
37973;SDS011;23796;51.458;7.000;2023-06-22T08:17:25;12.00;;;10.70;;
37973;SDS011;23796;51.458;7.000;2023-06-22T08:19:51;12.32;;;11.13;;
37973;SDS011;23796;51.458;7.000;2023-06-22T08:22:17;13.43;;;12.02;;
37973;SDS011;23796;51.458;7.000;2023-06-22T08:24:47;13.27;;;11.00;;
37973;SDS011;23796;51.458;7.000;2023-06-22T08:27:13;13.20;;;11.15;;
37973;SDS011;23796;51.458;7.000;2023-06-22T08:29:39;12.65;;;11.32;;
37973;SDS011;23796;51.458;7.000;2023-06-22T08:32:08;12.63;;;11.38;;
37973;SDS011;23796;51.458;7.000;2023-06-22T08:34:34;11.93;;;10.32;;
37973;SDS011;23796;51.458;7.000;2023-06-22T08:37:00;12.20;;;11.00;;
37973;SDS011;23796;51.458;7.000;2023-06-22T08:39:26;11.45;;;10.35;;
37973;SDS011;23796;51.458;7.000;2023-06-22T08:41:52;14.65;;;11.75;;
37973;SDS011;23796;51.458;7.000;2023-06-22T08:44:18;13.98;;;11.88;;
37973;SDS011;23796;51.458;7.000;2023-06-22T08:46:44;12.00;;;10.90;;
37973;SDS011;23796;51.458;7.000;2023-06-22T08:49:15;13.20;;;10.23;;
37973;SDS011;23796;51.458;7.000;2023-06-22T08:51:45;12.80;;;11.65;;
37973;SDS011;23796;51.458;7.000;2023-06-22T08:54:16;12.80;;;11.60;;
37973;SDS011;23796;51.458;7.000;2023-06-22T08:56:42;12.02;;;10.27;;
37973;SDS011;23796;51.458;7.000;2023-06-22T08:59:10;12.45;;;11.20;;
37973;SDS011;23796;51.458;7.000;2023-06-22T09:01:38;14.73;;;11.30;;
37973;SDS011;23796;51.458;7.000;2023-06-22T09:04:06;11.60;;;10.32;;
37973;SDS011;23796;51.458;7.000;2023-06-22T09:06:34;11.52;;;10.38;;
37973;SDS011;23796;51.458;7.000;2023-06-22T09:08:59;13.93;;;12.32;;
37973;SDS011;23796;51.458;7.000;2023-06-22T09:11:27;12.73;;;9.88;;
37973;SDS011;23796;51.458;7.000;2023-06-22T09:13:53;12.88;;;10.00;;
37973;SDS011;23796;51.458;7.000;2023-06-22T09:16:19;13.02;;;11.35;;
37973;SDS011;23796;51.458;7.000;2023-06-22T09:18:50;12.80;;;10.52;;
37973;SDS011;23796;51.458;7.000;2023-06-22T09:21:20;14.55;;;10.98;;
37973;SDS011;23796;51.458;7.000;2023-06-22T09:23:48;12.05;;;10.85;;
37973;SDS011;23796;51.458;7.000;2023-06-22T09:26:16;12.35;;;11.00;;
37973;SDS011;23796;51.458;7.000;2023-06-22T09:28:44;13.57;;;11.25;;
37973;SDS011;23796;51.458;7.000;2023-06-22T09:31:15;12.48;;;11.20;;
37973;SDS011;23796;51.458;7.000;2023-06-22T09:33:50;12.85;;;10.52;;
37973;SDS011;23796;51.458;7.000;2023-06-22T09:36:18;12.73;;;11.52;;
37973;SDS011;23796;51.458;7.000;2023-06-22T09:38:44;12.60;;;11.10;;
37973;SDS011;23796;51.458;7.000;2023-06-22T09:41:12;13.75;;;12.35;;
37973;SDS011;23796;51.458;7.000;2023-06-22T09:43:38;12.88;;;11.68;;
37973;SDS011;23796;51.458;7.000;2023-06-22T09:46:06;12.82;;;11.63;;
37973;SDS011;23796;51.458;7.000;2023-06-22T09:48:32;12.88;;;11.63;;
37973;SDS011;23796;51.458;7.000;2023-06-22T09:51:00;12.55;;;10.65;;
37973;SDS011;23796;51.458;7.000;2023-06-22T09:53:26;12.38;;;11.27;;
37973;SDS011;23796;51.458;7.000;2023-06-22T09:55:51;11.10;;;10.13;;
37973;SDS011;23796;51.458;7.000;2023-06-22T09:58:17;10.82;;;9.73;;
37973;SDS011;23796;51.458;7.000;2023-06-22T10:00:43;10.60;;;9.60;;
37973;SDS011;23796;51.458;7.000;2023-06-22T10:03:08;10.88;;;9.85;;
37973;SDS011;23796;51.458;7.000;2023-06-22T10:05:34;12.10;;;10.02;;
37973;SDS011;23796;51.458;7.000;2023-06-22T10:08:02;11.60;;;10.48;;
37973;SDS011;23796;51.458;7.000;2023-06-22T10:10:30;11.55;;;10.45;;
37973;SDS011;23796;51.458;7.000;2023-06-22T10:13:02;12.52;;;11.30;;
37973;SDS011;23796;51.458;7.000;2023-06-22T10:15:34;11.75;;;10.40;;
37973;SDS011;23796;51.458;7.000;2023-06-22T10:18:02;10.65;;;9.65;;
37973;SDS011;23796;51.458;7.000;2023-06-22T10:20:28;11.52;;;10.43;;
37973;SDS011;23796;51.458;7.000;2023-06-22T10:22:56;11.23;;;10.10;;
37973;SDS011;23796;51.458;7.000;2023-06-22T10:25:24;11.82;;;10.63;;
37973;SDS011;23796;51.458;7.000;2023-06-22T10:27:50;10.55;;;9.45;;
37973;SDS011;23796;51.458;7.000;2023-06-22T10:30:16;10.10;;;9.18;;
37973;SDS011;23796;51.458;7.000;2023-06-22T10:32:42;10.25;;;9.30;;
37973;SDS011;23796;51.458;7.000;2023-06-22T10:35:11;11.00;;;9.95;;
37973;SDS011;23796;51.458;7.000;2023-06-22T10:37:38;13.52;;;9.35;;
37973;SDS011;23796;51.458;7.000;2023-06-22T10:40:06;9.95;;;8.98;;
37973;SDS011;23796;51.458;7.000;2023-06-22T10:42:37;12.73;;;10.00;;
37973;SDS011;23796;51.458;7.000;2023-06-22T10:45:05;10.20;;;9.30;;
37973;SDS011;23796;51.458;7.000;2023-06-22T10:47:31;10.50;;;9.45;;
37973;SDS011;23796;51.458;7.000;2023-06-22T10:49:57;10.38;;;9.48;;
37973;SDS011;23796;51.458;7.000;2023-06-22T10:52:22;11.13;;;10.02;;
37973;SDS011;23796;51.458;7.000;2023-06-22T10:54:50;10.57;;;9.55;;
37973;SDS011;23796;51.458;7.000;2023-06-22T10:57:18;11.10;;;9.88;;
37973;SDS011;23796;51.458;7.000;2023-06-22T10:59:44;13.23;;;10.43;;
37973;SDS011;23796;51.458;7.000;2023-06-22T11:02:10;10.10;;;9.20;;
37973;SDS011;23796;51.458;7.000;2023-06-22T11:04:35;10.30;;;9.30;;
37973;SDS011;23796;51.458;7.000;2023-06-22T11:07:02;10.75;;;9.65;;
37973;SDS011;23796;51.458;7.000;2023-06-22T11:09:30;11.02;;;9.90;;
37973;SDS011;23796;51.458;7.000;2023-06-22T11:11:56;12.10;;;9.73;;
37973;SDS011;23796;51.458;7.000;2023-06-22T11:14:24;10.65;;;9.65;;
37973;SDS011;23796;51.458;7.000;2023-06-22T11:16:50;11.93;;;10.75;;
37973;SDS011;23796;51.458;7.000;2023-06-22T11:19:16;11.50;;;10.40;;
37973;SDS011;23796;51.458;7.000;2023-06-22T11:21:42;13.13;;;11.82;;
37973;SDS011;23796;51.458;7.000;2023-06-22T11:24:10;12.50;;;11.30;;
37973;SDS011;23796;51.458;7.000;2023-06-22T11:26:35;11.35;;;10.25;;
37973;SDS011;23796;51.458;7.000;2023-06-22T11:29:02;12.40;;;11.35;;
37973;SDS011;23796;51.458;7.000;2023-06-22T11:31:30;11.40;;;10.30;;
37973;SDS011;23796;51.458;7.000;2023-06-22T11:33:57;12.00;;;10.90;;
37973;SDS011;23796;51.458;7.000;2023-06-22T11:36:25;11.27;;;10.07;;
37973;SDS011;23796;51.458;7.000;2023-06-22T11:38:51;13.27;;;11.95;;
37973;SDS011;23796;51.458;7.000;2023-06-22T11:41:16;14.00;;;12.65;;
37973;SDS011;23796;51.458;7.000;2023-06-22T11:43:44;13.98;;;12.52;;
37973;SDS011;23796;51.458;7.000;2023-06-22T11:46:10;13.88;;;12.57;;
37973;SDS011;23796;51.458;7.000;2023-06-22T11:48:36;12.38;;;11.18;;
37973;SDS011;23796;51.458;7.000;2023-06-22T11:51:02;14.10;;;12.70;;
37973;SDS011;23796;51.458;7.000;2023-06-22T11:53:28;15.40;;;13.90;;
37973;SDS011;23796;51.458;7.000;2023-06-22T11:55:56;15.23;;;13.88;;
37973;SDS011;23796;51.458;7.000;2023-06-22T11:58:22;16.70;;;14.93;;
37973;SDS011;23796;51.458;7.000;2023-06-22T12:00:48;16.77;;;14.95;;
37973;SDS011;23796;51.458;7.000;2023-06-22T12:03:17;17.77;;;16.13;;
37973;SDS011;23796;51.458;7.000;2023-06-22T12:05:42;16.00;;;14.32;;
37973;SDS011;23796;51.458;7.000;2023-06-22T12:08:13;18.23;;;16.40;;
37973;SDS011;23796;51.458;7.000;2023-06-22T12:10:38;17.48;;;15.77;;
37973;SDS011;23796;51.458;7.000;2023-06-22T12:13:06;17.52;;;15.93;;
37973;SDS011;23796;51.458;7.000;2023-06-22T12:15:34;15.88;;;14.48;;
37973;SDS011;23796;51.458;7.000;2023-06-22T12:18:00;16.48;;;14.88;;
37973;SDS011;23796;51.458;7.000;2023-06-22T12:20:26;16.77;;;15.07;;
37973;SDS011;23796;51.458;7.000;2023-06-22T12:22:54;17.35;;;15.75;;
37973;SDS011;23796;51.458;7.000;2023-06-22T12:25:21;18.55;;;15.45;;
37973;SDS011;23796;51.458;7.000;2023-06-22T12:27:47;17.48;;;15.75;;
37973;SDS011;23796;51.458;7.000;2023-06-22T12:30:13;18.20;;;16.70;;
37973;SDS011;23796;51.458;7.000;2023-06-22T12:32:38;18.40;;;16.70;;
37973;SDS011;23796;51.458;7.000;2023-06-22T12:35:04;19.35;;;17.70;;
37973;SDS011;23796;51.458;7.000;2023-06-22T12:37:32;20.05;;;18.15;;
37973;SDS011;23796;51.458;7.000;2023-06-22T12:39:58;20.77;;;19.05;;
37973;SDS011;23796;51.458;7.000;2023-06-22T12:42:26;19.65;;;17.80;;
37973;SDS011;23796;51.458;7.000;2023-06-22T12:44:53;20.17;;;18.38;;
37973;SDS011;23796;51.458;7.000;2023-06-22T12:47:18;20.42;;;18.73;;
37973;SDS011;23796;51.458;7.000;2023-06-22T12:49:45;20.05;;;18.25;;
37973;SDS011;23796;51.458;7.000;2023-06-22T12:52:10;18.33;;;16.83;;
37973;SDS011;23796;51.458;7.000;2023-06-22T12:54:38;21.85;;;19.92;;
37973;SDS011;23796;51.458;7.000;2023-06-22T12:57:04;22.20;;;20.33;;
37973;SDS011;23796;51.458;7.000;2023-06-22T12:59:30;20.02;;;18.15;;
37973;SDS011;23796;51.458;7.000;2023-06-22T13:01:55;22.08;;;20.17;;
37973;SDS011;23796;51.458;7.000;2023-06-22T13:04:21;21.83;;;19.92;;
37973;SDS011;23796;51.458;7.000;2023-06-22T13:06:47;22.73;;;20.63;;
37973;SDS011;23796;51.458;7.000;2023-06-22T13:09:17;22.45;;;20.65;;
37973;SDS011;23796;51.458;7.000;2023-06-22T13:11:43;22.95;;;20.98;;
37973;SDS011;23796;51.458;7.000;2023-06-22T13:14:09;20.55;;;18.75;;
37973;SDS011;23796;51.458;7.000;2023-06-22T13:16:35;21.92;;;20.13;;
37973;SDS011;23796;51.458;7.000;2023-06-22T13:19:03;20.02;;;18.40;;
37973;SDS011;23796;51.458;7.000;2023-06-22T13:21:33;21.27;;;19.48;;
37973;SDS011;23796;51.458;7.000;2023-06-22T13:23:59;22.02;;;20.05;;
37973;SDS011;23796;51.458;7.000;2023-06-22T13:26:25;23.23;;;21.23;;
37973;SDS011;23796;51.458;7.000;2023-06-22T13:28:53;21.13;;;19.27;;
37973;SDS011;23796;51.458;7.000;2023-06-22T13:31:22;20.67;;;18.67;;
37973;SDS011;23796;51.458;7.000;2023-06-22T13:33:47;22.45;;;20.60;;
37973;SDS011;23796;51.458;7.000;2023-06-22T13:36:16;21.98;;;20.08;;
37973;SDS011;23796;51.458;7.000;2023-06-22T13:38:50;21.67;;;19.85;;
37973;SDS011;23796;51.458;7.000;2023-06-22T13:41:16;21.65;;;19.75;;
37973;SDS011;23796;51.458;7.000;2023-06-22T13:43:41;21.45;;;19.27;;
37973;SDS011;23796;51.458;7.000;2023-06-22T13:46:07;21.13;;;18.95;;
37973;SDS011;23796;51.458;7.000;2023-06-22T13:48:33;21.35;;;19.52;;
37973;SDS011;23796;51.458;7.000;2023-06-22T13:51:01;21.25;;;19.45;;
37973;SDS011;23796;51.458;7.000;2023-06-22T13:53:26;22.33;;;20.02;;
37973;SDS011;23796;51.458;7.000;2023-06-22T13:55:52;21.63;;;19.60;;
37973;SDS011;23796;51.458;7.000;2023-06-22T13:58:17;20.95;;;19.20;;
37973;SDS011;23796;51.458;7.000;2023-06-22T14:00:44;22.65;;;20.70;;
37973;SDS011;23796;51.458;7.000;2023-06-22T14:03:15;20.65;;;18.70;;
37973;SDS011;23796;51.458;7.000;2023-06-22T14:05:41;20.02;;;18.33;;
37973;SDS011;23796;51.458;7.000;2023-06-22T14:08:08;21.05;;;19.15;;
37973;SDS011;23796;51.458;7.000;2023-06-22T14:10:35;22.80;;;20.88;;
37973;SDS011;23796;51.458;7.000;2023-06-22T14:13:01;23.02;;;20.83;;
37973;SDS011;23796;51.458;7.000;2023-06-22T14:15:33;21.90;;;19.85;;
37973;SDS011;23796;51.458;7.000;2023-06-22T14:18:01;20.58;;;18.77;;
37973;SDS011;23796;51.458;7.000;2023-06-22T14:20:29;21.38;;;19.58;;
37973;SDS011;23796;51.458;7.000;2023-06-22T14:22:56;22.30;;;20.45;;
37973;SDS011;23796;51.458;7.000;2023-06-22T14:25:24;21.02;;;19.38;;
37973;SDS011;23796;51.458;7.000;2023-06-22T14:27:55;20.17;;;18.25;;
37973;SDS011;23796;51.458;7.000;2023-06-22T14:30:20;19.70;;;18.10;;
37973;SDS011;23796;51.458;7.000;2023-06-22T14:32:46;18.73;;;17.13;;
37973;SDS011;23796;51.458;7.000;2023-06-22T14:35:12;19.08;;;17.27;;
37973;SDS011;23796;51.458;7.000;2023-06-22T14:37:37;17.48;;;15.95;;
37973;SDS011;23796;51.458;7.000;2023-06-22T14:40:03;16.90;;;15.50;;
37973;SDS011;23796;51.458;7.000;2023-06-22T14:42:31;17.55;;;16.08;;
37973;SDS011;23796;51.458;7.000;2023-06-22T14:44:57;17.00;;;15.50;;
37973;SDS011;23796;51.458;7.000;2023-06-22T14:47:25;18.60;;;16.90;;
37973;SDS011;23796;51.458;7.000;2023-06-22T14:49:53;17.65;;;16.15;;
37973;SDS011;23796;51.458;7.000;2023-06-22T14:52:21;18.48;;;16.88;;